Time;durP1;ratioP1;P1;durP2;ratioP2;P2;SDS_P1;SDS_P2;PMS_P1;PMS_P2;Temp;Humidity;BMP_temperature;BMP_pressure;BME280_temperature;BME280_humidity;BME280_pressure;Samples;Min_cycle;Max_cycle;Signal;HPM_P1;HPM_P2
2024/01/24 00:01:58;;;;;;;7.37;5.63;;;;;;;2.50;70.29;95957.75;5017348;28;20223;-72
2024/01/24 00:04:24;;;;;;;7.33;5.43;;;;;;;2.48;70.17;95950.97;5017590;28;20282;-77
2024/01/24 00:06:50;;;;;;;8.60;6.00;;;;;;;2.49;70.05;95965.63;5013504;28;20222;-73
2024/01/24 00:09:15;;;;;;;9.53;6.20;;;;;;;2.57;69.55;95964.31;5048267;28;20178;-73
2024/01/24 00:11:41;;;;;;;7.30;5.57;;;;;;;2.59;69.05;95965.09;5013559;28;20182;-71
2024/01/24 00:14:06;;;;;;;7.97;5.83;;;;;;;2.65;68.85;95962.16;5014350;28;20226;-71
2024/01/24 00:16:32;;;;;;;7.20;5.67;;;;;;;2.55;69.19;95973.94;5011153;28;20210;-73
2024/01/24 00:18:57;;;;;;;9.33;5.63;;;;;;;2.56;69.43;95979.97;5020886;28;20221;-71
2024/01/24 00:21:23;;;;;;;8.83;5.40;;;;;;;2.52;69.44;95975.84;5022254;28;20243;-75
2024/01/24 00:23:48;;;;;;;7.97;5.67;;;;;;;2.62;69.40;95988.28;5023270;28;20206;-73
2024/01/24 00:26:13;;;;;;;6.63;5.57;;;;;;;2.61;68.81;95989.19;5019869;28;20313;-74
2024/01/24 00:28:39;;;;;;;7.13;5.43;;;;;;;2.48;68.93;95976.91;5021045;28;20220;-76
2024/01/24 00:31:04;;;;;;;6.87;5.47;;;;;;;2.56;68.78;95988.59;5048346;28;20206;-76
2024/01/24 00:33:30;;;;;;;10.17;5.70;;;;;;;2.48;69.37;95985.53;5047249;28;20222;-74
2024/01/24 00:35:55;;;;;;;6.67;5.27;;;;;;;2.48;68.79;95993.34;5017262;28;20174;-72
2024/01/24 00:38:21;;;;;;;6.03;5.37;;;;;;;2.38;69.32;95997.34;5022193;28;20346;-74
2024/01/24 00:40:46;;;;;;;5.90;4.73;;;;;;;2.47;69.23;95986.47;5040144;28;20224;-71
2024/01/24 00:43:12;;;;;;;6.90;5.03;;;;;;;2.52;68.99;95988.84;5021111;28;20230;-72
2024/01/24 00:45:37;;;;;;;6.27;5.43;;;;;;;2.54;68.59;95998.22;5015825;28;20210;-74
2024/01/24 00:48:03;;;;;;;8.10;5.40;;;;;;;2.52;68.55;95996.63;5021103;28;20181;-71
2024/01/24 00:50:28;;;;;;;6.73;5.10;;;;;;;2.53;68.46;95998.28;5015783;28;20221;-72
2024/01/24 00:52:55;;;;;;;7.13;5.10;;;;;;;2.56;68.38;95998.13;5020287;28;20216;-77
2024/01/24 00:55:21;;;;;;;7.93;4.73;;;;;;;2.57;68.07;96003.25;5021916;28;20272;-72
2024/01/24 00:57:47;;;;;;;7.00;4.90;;;;;;;2.55;68.07;95997.31;5011428;28;20210;-74
2024/01/24 01:00:13;;;;;;;6.70;4.80;;;;;;;2.56;67.90;96003.31;5017940;28;20182;-76
2024/01/24 01:02:38;;;;;;;7.37;5.53;;;;;;;2.57;67.74;95995.47;5022905;28;20217;-78
2024/01/24 01:05:04;;;;;;;8.10;5.47;;;;;;;2.58;67.37;95994.53;5004442;28;20309;-76
2024/01/24 01:07:30;;;;;;;7.47;5.20;;;;;;;2.57;67.67;95992.03;5006733;28;20230;-73
2024/01/24 01:09:55;;;;;;;5.77;5.17;;;;;;;2.51;67.47;95985.38;5018910;28;20297;-76
2024/01/24 01:12:20;;;;;;;7.27;5.40;;;;;;;2.42;67.89;95991.06;5012634;28;20248;-76
2024/01/24 01:14:46;;;;;;;7.87;5.80;;;;;;;2.42;68.23;95993.66;5020775;28;20264;-77
2024/01/24 01:17:11;;;;;;;6.23;5.07;;;;;;;2.36;68.30;95997.41;5026001;28;20225;-71
2024/01/24 01:19:37;;;;;;;6.73;5.47;;;;;;;2.47;67.83;95991.66;5012465;28;20282;-72
2024/01/24 01:22:03;;;;;;;8.07;5.47;;;;;;;2.37;68.14;95995.63;5018914;28;20298;-72
2024/01/24 01:24:28;;;;;;;8.60;6.07;;;;;;;2.30;68.36;95987.34;5021613;28;20229;-72
2024/01/24 01:26:54;;;;;;;8.23;5.43;;;;;;;2.26;68.41;95996.19;5025411;28;20219;-71
2024/01/24 01:29:19;;;;;;;6.80;5.30;;;;;;;2.33;68.14;95983.75;5014543;28;20241;-71
2024/01/24 01:31:44;;;;;;;7.43;5.43;;;;;;;2.36;68.20;95981.00;5018220;28;20220;-72
2024/01/24 01:34:10;;;;;;;7.83;5.73;;;;;;;2.34;68.27;95994.03;5015762;28;20222;-72
2024/01/24 01:36:35;;;;;;;7.83;5.80;;;;;;;2.38;68.26;95985.19;5015183;28;20275;-75
2024/01/24 01:39:01;;;;;;;7.37;5.90;;;;;;;2.32;68.04;95982.88;5015167;28;20534;-71
2024/01/24 01:41:27;;;;;;;6.17;5.57;;;;;;;2.32;67.93;95987.25;5018135;28;20218;-71
2024/01/24 01:43:52;;;;;;;9.00;5.97;;;;;;;2.31;68.61;95982.97;5019043;28;20241;-71
2024/01/24 01:46:18;;;;;;;10.43;6.03;;;;;;;2.33;68.29;95978.56;5020379;28;20299;-68
2024/01/24 01:48:44;;;;;;;6.97;5.97;;;;;;;2.26;68.55;95982.38;5016773;28;20213;-72
2024/01/24 01:51:11;;;;;;;7.47;6.13;;;;;;;2.22;68.92;95981.69;5025993;28;20193;-75
2024/01/24 01:53:38;;;;;;;9.77;6.30;;;;;;;2.19;69.08;95971.44;5019206;28;20183;-70
2024/01/24 01:56:12;;;;;;;8.30;6.77;;;;;;;2.20;68.67;95962.78;5017416;28;20218;-73
2024/01/24 01:58:38;;;;;;;9.20;6.30;;;;;;;2.28;68.42;95967.56;5014753;28;20226;-70
2024/01/24 02:01:05;;;;;;;8.20;6.37;;;;;;;2.31;68.32;95959.63;5013652;28;20218;-70
2024/01/24 02:03:31;;;;;;;9.40;6.70;;;;;;;2.16;68.66;95950.84;5023312;28;20225;-75
2024/01/24 02:05:57;;;;;;;7.97;6.57;;;;;;;2.12;68.74;95945.00;5046524;28;20230;-73
2024/01/24 02:08:22;;;;;;;8.07;6.00;;;;;;;2.11;68.58;95942.47;5022455;28;20234;-75
2024/01/24 02:10:48;;;;;;;7.33;5.60;;;;;;;2.14;68.31;95947.53;5023659;28;20593;-76
2024/01/24 02:13:14;;;;;;;6.97;5.87;;;;;;;2.27;68.07;95951.13;5016635;28;20245;-71
2024/01/24 02:15:40;;;;;;;7.30;5.30;;;;;;;2.33;67.77;95955.22;5022446;28;20220;-72
2024/01/24 02:18:06;;;;;;;7.37;5.50;;;;;;;2.26;68.01;95946.88;5018052;28;20175;-73
2024/01/24 02:20:32;;;;;;;8.27;5.57;;;;;;;2.18;68.04;95952.44;5024447;28;20516;-72
2024/01/24 02:22:57;;;;;;;7.87;5.70;;;;;;;2.14;68.04;95940.56;5051303;28;20219;-72
2024/01/24 02:25:23;;;;;;;7.70;5.50;;;;;;;2.08;68.15;95947.81;5019014;28;20234;-71
2024/01/24 02:27:48;;;;;;;7.43;5.27;;;;;;;2.14;68.00;95948.34;5048925;28;20226;-72
2024/01/24 02:30:14;;;;;;;7.03;5.83;;;;;;;2.15;67.65;95936.22;5014288;28;20182;-70
2024/01/24 02:32:40;;;;;;;7.23;5.33;;;;;;;2.21;67.23;95944.50;5053176;28;20171;-70
2024/01/24 02:35:06;;;;;;;8.77;5.77;;;;;;;2.04;67.56;95941.94;5017546;28;20214;-71
2024/01/24 02:37:32;;;;;;;7.13;5.87;;;;;;;2.09;67.92;95945.16;5021197;28;20249;-72
2024/01/24 02:39:57;;;;;;;7.97;5.87;;;;;;;2.15;67.51;95938.81;5016513;28;20245;-71
2024/01/24 02:42:23;;;;;;;6.30;5.50;;;;;;;2.04;67.58;95930.75;4998863;28;20186;-71
2024/01/24 02:44:49;;;;;;;7.50;5.87;;;;;;;1.99;67.70;95936.97;5024857;28;20179;-71
2024/01/24 02:47:14;;;;;;;7.03;5.87;;;;;;;1.96;67.69;95933.72;5046671;28;20249;-71
2024/01/24 02:49:40;;;;;;;8.53;6.30;;;;;;;1.99;67.89;95933.56;5019503;28;20277;-71
2024/01/24 02:52:06;;;;;;;7.13;5.30;;;;;;;2.11;67.36;95940.72;5013529;28;20223;-69
2024/01/24 02:54:31;;;;;;;7.30;5.73;;;;;;;2.04;67.56;95931.56;5016205;28;20245;-70
2024/01/24 02:56:57;;;;;;;8.33;6.60;;;;;;;2.15;67.32;95939.63;5016763;28;20186;-71
2024/01/24 02:59:23;;;;;;;8.97;6.47;;;;;;;2.22;67.04;95942.78;5004937;28;20282;-71
2024/01/24 03:01:48;;;;;;;8.27;6.40;;;;;;;2.05;67.43;95941.03;5000296;28;20220;-70
2024/01/24 03:04:14;;;;;;;7.70;6.03;;;;;;;2.07;66.98;95949.56;4998001;28;20227;-71
2024/01/24 03:06:42;;;;;;;8.40;6.53;;;;;;;2.09;67.41;95955.53;5016141;28;20222;-71
2024/01/24 03:09:08;;;;;;;8.57;6.17;;;;;;;2.10;67.25;95951.16;5018070;28;20183;-73
2024/01/24 03:11:33;;;;;;;7.77;6.07;;;;;;;2.03;67.50;95949.78;5020585;28;20245;-77
2024/01/24 03:13:58;;;;;;;10.13;6.27;;;;;;;2.05;67.73;95938.41;5048363;28;20213;-77
2024/01/24 03:16:24;;;;;;;8.97;7.00;;;;;;;2.03;67.97;95944.59;5029166;28;20295;-77
2024/01/24 03:18:51;;;;;;;7.90;6.20;;;;;;;2.06;67.57;95932.34;5028471;28;20229;-77
2024/01/24 03:21:17;;;;;;;7.63;6.60;;;;;;;2.06;67.23;95931.47;5021184;28;20190;-78
2024/01/24 03:23:43;;;;;;;9.47;6.63;;;;;;;2.06;66.97;95928.88;5015345;28;20220;-74
2024/01/24 03:26:09;;;;;;;9.33;5.83;;;;;;;2.09;66.78;95929.59;5018468;28;20223;-79
2024/01/24 03:28:35;;;;;;;7.03;5.73;;;;;;;2.10;66.24;95922.63;5046564;28;20269;-79
2024/01/24 03:31:01;;;;;;;8.77;6.03;;;;;;;2.05;66.43;95914.25;5007681;28;20227;-78
2024/01/24 03:33:27;;;;;;;9.70;6.30;;;;;;;2.07;65.98;95921.03;5019578;28;20179;-78
2024/01/24 03:35:52;;;;;;;9.13;6.17;;;;;;;2.06;66.09;95928.88;5048567;28;20197;-80
2024/01/24 03:38:19;;;;;;;7.43;6.10;;;;;;;2.20;65.65;95936.81;5046211;28;20234;-79
2024/01/24 03:40:45;;;;;;;9.37;6.50;;;;;;;2.23;65.77;95943.63;5016993;28;20219;-74
2024/01/24 03:43:13;;;;;;;9.47;7.03;;;;;;;2.20;65.63;95940.25;4997546;28;20726;-76
2024/01/24 03:45:39;;;;;;;9.47;7.33;;;;;;;2.15;65.72;95934.44;5024738;28;20224;-76
2024/01/24 03:48:06;;;;;;;9.63;6.60;;;;;;;2.20;65.16;95942.84;5011537;28;20270;-75
2024/01/24 03:50:32;;;;;;;8.70;7.13;;;;;;;2.13;65.99;95940.63;5014278;28;20246;-75
2024/01/24 03:52:58;;;;;;;7.87;6.20;;;;;;;2.18;65.51;95939.47;5053009;28;20222;-76
2024/01/24 03:55:23;;;;;;;8.07;5.97;;;;;;;2.13;66.10;95938.03;5019757;28;20272;-75
2024/01/24 03:57:48;;;;;;;8.30;5.67;;;;;;;2.08;65.56;95938.25;5023161;28;20222;-75
2024/01/24 04:00:16;;;;;;;8.63;6.40;;;;;;;2.05;65.77;95927.22;5012985;28;20213;-76
2024/01/24 04:02:42;;;;;;;9.67;6.37;;;;;;;2.00;65.84;95927.44;5018179;28;20248;-75
2024/01/24 04:05:08;;;;;;;9.90;6.30;;;;;;;2.06;65.69;95932.34;5016769;28;20222;-76
2024/01/24 04:07:34;;;;;;;7.50;6.57;;;;;;;2.06;66.19;95931.47;5019044;28;20233;-74
2024/01/24 04:09:59;;;;;;;9.33;6.50;;;;;;;1.98;66.02;95932.72;5013825;28;20230;-74
2024/01/24 04:12:25;;;;;;;7.97;5.80;;;;;;;2.05;65.84;95942.78;5003401;28;20198;-75
2024/01/24 04:14:51;;;;;;;8.73;5.93;;;;;;;2.16;65.49;95956.88;5007018;28;20210;-76
2024/01/24 04:17:16;;;;;;;8.33;6.50;;;;;;;2.12;65.43;95955.38;4999034;28;20235;-75
2024/01/24 04:19:41;;;;;;;9.10;5.83;;;;;;;2.14;65.66;95952.72;5014812;28;20267;-76
2024/01/24 04:22:08;;;;;;;7.63;6.47;;;;;;;2.15;65.27;95960.41;5022123;28;20222;-73
2024/01/24 04:24:34;;;;;;;7.77;6.10;;;;;;;2.17;65.03;95962.94;5019123;28;20238;-74
2024/01/24 04:27:00;;;;;;;8.83;6.10;;;;;;;2.11;65.26;95956.28;5015281;28;20194;-74
2024/01/24 04:29:25;;;;;;;7.90;5.73;;;;;;;1.98;65.14;95963.00;5024376;28;20226;-74
2024/01/24 04:31:51;;;;;;;7.37;5.60;;;;;;;2.06;65.27;95958.28;5021291;28;20219;-74
2024/01/24 04:34:17;;;;;;;7.77;6.00;;;;;;;2.04;65.40;95965.28;5002916;28;20221;-74
2024/01/24 04:36:44;;;;;;;7.73;6.00;;;;;;;2.10;65.22;95959.78;5015533;28;20225;-74
2024/01/24 04:39:12;;;;;;;11.77;6.73;;;;;;;1.98;65.17;95971.63;5014523;28;20193;-74
2024/01/24 04:41:37;;;;;;;7.53;6.37;;;;;;;2.07;65.07;95980.69;5015440;28;20273;-74
2024/01/24 04:44:04;;;;;;;9.23;6.13;;;;;;;2.13;65.01;95980.38;5014797;28;20286;-73
2024/01/24 04:46:29;;;;;;;9.77;6.20;;;;;;;1.97;65.12;95977.72;5031280;28;20267;-71
2024/01/24 04:48:55;;;;;;;8.53;6.53;;;;;;;2.12;65.04;95981.31;5005861;28;20222;-71
2024/01/24 04:51:21;;;;;;;10.07;7.00;;;;;;;2.07;65.09;95980.69;5017547;28;20229;-79
2024/01/24 04:53:47;;;;;;;8.40;7.00;;;;;;;2.05;65.31;95981.69;5022934;28;20178;-78
2024/01/24 04:56:13;;;;;;;9.20;7.07;;;;;;;2.02;65.41;95981.84;5017276;28;20228;-80
2024/01/24 04:58:40;;;;;;;11.80;7.20;;;;;;;1.98;65.75;95982.00;5014557;28;20228;-79
2024/01/24 05:01:06;;;;;;;10.30;7.13;;;;;;;2.01;65.74;95988.78;5015315;28;20261;-77
2024/01/24 05:03:32;;;;;;;9.90;6.57;;;;;;;2.06;65.67;95986.81;5002922;28;20236;-78
2024/01/24 05:05:57;;;;;;;10.73;7.40;;;;;;;2.08;65.62;95992.75;4996417;28;20189;-79
2024/01/24 05:08:22;;;;;;;10.17;7.03;;;;;;;2.06;65.95;95991.13;4995523;28;20223;-77
2024/01/24 05:10:48;;;;;;;9.63;7.57;;;;;;;2.00;65.57;96002.66;4995368;28;20233;-77
2024/01/24 05:13:13;;;;;;;10.43;7.17;;;;;;;2.07;65.72;96001.47;4991382;28;20230;-75
2024/01/24 05:15:39;;;;;;;10.87;7.70;;;;;;;1.94;66.25;96014.19;5022473;28;20224;-73
2024/01/24 05:18:04;;;;;;;9.33;7.37;;;;;;;2.06;66.30;96007.56;4972630;28;20218;-73
2024/01/24 05:20:30;;;;;;;9.53;7.30;;;;;;;2.00;66.00;96013.03;4995336;28;20241;-74
2024/01/24 05:22:55;;;;;;;10.57;7.50;;;;;;;1.85;66.23;96011.22;4990664;28;20302;-74
2024/01/24 05:25:21;;;;;;;11.57;6.97;;;;;;;1.94;66.38;96021.13;4997863;28;20221;-73
2024/01/24 05:27:47;;;;;;;9.80;7.37;;;;;;;1.84;66.52;96017.28;4985032;28;20222;-76
2024/01/24 05:30:13;;;;;;;9.67;6.87;;;;;;;1.93;66.66;96022.06;4999952;28;20179;-75
2024/01/24 05:32:38;;;;;;;10.93;6.53;;;;;;;1.94;66.08;96016.78;5035359;28;20210;-75
2024/01/24 05:35:04;;;;;;;10.43;7.90;;;;;;;1.99;66.08;96021.75;4998327;28;20250;-74
2024/01/24 05:37:30;;;;;;;8.20;6.97;;;;;;;1.90;66.17;96022.22;5007856;28;20222;-74
2024/01/24 05:39:56;;;;;;;10.07;6.90;;;;;;;1.95;66.10;96015.00;5003555;28;20243;-80
2024/01/24 05:42:22;;;;;;;9.77;6.93;;;;;;;1.96;65.95;96011.53;4997476;28;20195;-78
2024/01/24 05:44:48;;;;;;;9.20;6.97;;;;;;;2.01;65.75;96019.94;5003015;28;20187;-77
2024/01/24 05:47:14;;;;;;;10.27;6.97;;;;;;;1.97;65.73;96014.03;5001139;28;20234;-74
2024/01/24 05:49:39;;;;;;;11.13;7.47;;;;;;;2.08;65.45;96015.25;4998628;28;20253;-75
2024/01/24 05:52:05;;;;;;;12.03;7.67;;;;;;;2.14;65.36;96021.00;5003792;28;20250;-74
2024/01/24 05:54:31;;;;;;;9.23;7.53;;;;;;;2.16;65.26;96021.75;4996042;28;20224;-73
2024/01/24 05:56:57;;;;;;;10.07;7.60;;;;;;;2.13;65.29;96015.88;4996928;28;20211;-74
2024/01/24 05:59:23;;;;;;;10.53;7.40;;;;;;;2.02;65.49;96010.38;4991345;28;20219;-75
2024/01/24 06:01:48;;;;;;;10.80;7.73;;;;;;;2.01;66.12;96004.38;5000507;28;20308;-74
2024/01/24 06:04:14;;;;;;;7.93;6.53;;;;;;;2.02;65.53;96011.22;5038697;28;20231;-74
2024/01/24 06:06:42;;;;;;;10.63;6.97;;;;;;;2.04;65.37;96017.19;5029286;28;20280;-73
2024/01/24 06:09:08;;;;;;;10.30;7.20;;;;;;;2.07;65.28;95998.03;5009741;28;20195;-72
2024/01/24 06:11:33;;;;;;;9.77;7.83;;;;;;;2.15;65.06;96003.69;5011562;28;20199;-73
2024/01/24 06:13:59;;;;;;;11.20;7.53;;;;;;;2.13;65.40;96014.13;4996635;28;20283;-73
2024/01/24 06:16:24;;;;;;;9.77;7.80;;;;;;;2.04;65.31;96012.00;4996476;28;20242;-72
2024/01/24 06:18:49;;;;;;;9.33;7.27;;;;;;;2.05;65.34;96008.47;4989177;28;20215;-76
2024/01/24 06:21:15;;;;;;;10.00;7.20;;;;;;;2.01;65.37;96016.50;4997174;28;20203;-76
2024/01/24 06:23:40;;;;;;;10.73;7.87;;;;;;;2.10;65.31;96011.69;4995622;28;20218;-74
2024/01/24 06:26:06;;;;;;;10.57;7.70;;;;;;;1.99;65.48;96003.59;4995888;28;20220;-74
2024/01/24 06:28:32;;;;;;;8.67;6.63;;;;;;;2.01;65.56;96009.56;5000115;28;20220;-75
2024/01/24 06:30:57;;;;;;;8.93;7.47;;;;;;;2.09;65.58;96011.78;5000111;28;20224;-73
2024/01/24 06:33:24;;;;;;;9.53;7.17;;;;;;;2.17;65.23;96007.88;4990126;28;20184;-75
2024/01/24 06:35:49;;;;;;;10.83;7.27;;;;;;;2.04;65.47;95998.19;4992796;28;20187;-75
2024/01/24 06:38:15;;;;;;;9.83;7.33;;;;;;;2.08;65.49;96008.31;4993824;28;20234;-74
2024/01/24 06:40:40;;;;;;;10.27;7.23;;;;;;;2.15;65.21;96011.47;4995747;28;20235;-74
2024/01/24 06:43:06;;;;;;;10.23;7.30;;;;;;;2.12;64.94;96001.22;5002238;28;20227;-74
2024/01/24 06:45:31;;;;;;;10.10;7.73;;;;;;;2.14;64.87;96008.03;4993702;28;20223;-74
2024/01/24 06:47:58;;;;;;;11.53;7.40;;;;;;;1.98;65.46;96001.94;4994042;28;20244;-73
2024/01/24 06:50:24;;;;;;;11.17;7.50;;;;;;;2.04;65.48;95999.03;4997927;28;20223;-75
2024/01/24 06:52:50;;;;;;;9.90;7.30;;;;;;;2.10;65.10;96009.09;4997858;28;20211;-76
2024/01/24 06:55:20;;;;;;;10.37;7.33;;;;;;;2.09;65.47;96007.41;4996816;28;20226;-74
2024/01/24 06:57:45;;;;;;;9.63;6.87;;;;;;;2.19;64.83;95993.06;4994589;28;20211;-74
2024/01/24 07:00:11;;;;;;;10.50;7.47;;;;;;;2.19;64.89;96003.44;4993690;28;20204;-74
2024/01/24 07:02:37;;;;;;;10.47;7.20;;;;;;;2.20;64.63;96005.13;4983959;28;20243;-74
2024/01/24 07:05:03;;;;;;;12.37;7.40;;;;;;;2.29;64.47;95992.59;5006060;28;20232;-74
2024/01/24 07:07:29;;;;;;;10.63;7.57;;;;;;;2.33;64.16;95994.13;5017349;28;20227;-75
2024/01/24 07:09:55;;;;;;;12.27;7.60;;;;;;;2.35;64.15;95994.88;4980601;28;20215;-73
2024/01/24 07:12:20;;;;;;;10.67;7.90;;;;;;;2.49;63.62;95989.00;4993306;28;20199;-74
2024/01/24 07:14:48;;;;;;;12.37;8.40;;;;;;;2.46;63.61;95982.22;4991545;28;20212;-74
2024/01/24 07:17:13;;;;;;;10.20;7.90;;;;;;;2.47;63.83;95991.66;4974262;28;20236;-73
2024/01/24 07:19:39;;;;;;;8.07;7.10;;;;;;;2.61;63.55;95985.75;5003727;28;20246;-74
2024/01/24 07:22:04;;;;;;;11.37;7.80;;;;;;;2.59;63.68;95996.25;5009737;28;20303;-74
2024/01/24 07:24:30;;;;;;;13.83;8.20;;;;;;;2.88;63.06;95991.25;4969594;28;20223;-74
2024/01/24 07:26:56;;;;;;;11.43;7.87;;;;;;;2.72;63.14;96005.97;5002127;28;20189;-74
2024/01/24 07:29:22;;;;;;;9.40;7.03;;;;;;;2.82;63.20;96001.97;4974377;28;20220;-74
2024/01/24 07:31:47;;;;;;;9.07;7.37;;;;;;;2.95;62.57;96007.38;4981866;28;20212;-74
2024/01/24 07:34:13;;;;;;;12.70;7.50;;;;;;;3.03;62.16;96013.00;4980397;28;20251;-74
2024/01/24 07:36:38;;;;;;;10.80;6.97;;;;;;;3.02;62.16;96006.97;4980279;28;20227;-73
2024/01/24 07:39:04;;;;;;;12.53;7.33;;;;;;;3.15;61.85;96019.28;4982174;28;20275;-74
2024/01/24 07:41:30;;;;;;;10.13;7.43;;;;;;;3.26;61.04;96019.56;4980327;28;20263;-73
2024/01/24 07:43:55;;;;;;;9.60;6.90;;;;;;;3.34;60.71;96025.19;4979255;28;20217;-75
2024/01/24 07:46:24;;;;;;;8.27;6.60;;;;;;;3.33;60.48;96028.72;5004761;28;20236;-74
2024/01/24 07:48:49;;;;;;;8.30;6.53;;;;;;;3.25;60.95;96018.72;5004479;28;20216;-73
2024/01/24 07:51:15;;;;;;;8.07;6.20;;;;;;;3.42;60.09;96025.63;5014428;28;20256;-74
2024/01/24 07:53:42;;;;;;;9.70;7.00;;;;;;;3.47;60.17;96031.38;4960046;28;20208;-75
2024/01/24 07:56:07;;;;;;;9.80;6.53;;;;;;;3.51;59.64;96035.50;4971852;28;20220;-75
2024/01/24 07:58:33;;;;;;;9.70;5.97;;;;;;;3.40;60.12;96030.06;4984110;28;20246;-75
2024/01/24 08:00:58;;;;;;;12.10;7.23;;;;;;;3.37;60.38;96030.22;4970515;28;20315;-73
2024/01/24 08:03:23;;;;;;;8.77;6.67;;;;;;;3.28;61.19;96033.31;4979648;28;20270;-73
2024/01/24 08:05:49;;;;;;;10.30;7.10;;;;;;;3.49;60.49;96029.56;4964568;28;20181;-74
2024/01/24 08:08:14;;;;;;;10.57;7.53;;;;;;;3.52;60.33;96031.97;4995067;28;20222;-73
2024/01/24 08:10:40;;;;;;;11.00;7.20;;;;;;;3.66;60.27;96032.97;4987382;28;20220;-74
2024/01/24 08:13:06;;;;;;;9.87;7.57;;;;;;;3.71;60.22;96033.56;4999700;28;20228;-74
2024/01/24 08:15:31;;;;;;;9.87;7.03;;;;;;;3.78;59.71;96034.91;4973656;28;20220;-74
2024/01/24 08:17:57;;;;;;;12.27;7.50;;;;;;;3.80;59.88;96050.44;4975509;28;20207;-74
2024/01/24 08:20:23;;;;;;;9.57;7.20;;;;;;;3.86;59.90;96040.53;4973292;28;20311;-74
2024/01/24 08:22:49;;;;;;;10.07;7.13;;;;;;;3.94;59.64;96040.94;4979389;28;20228;-75
2024/01/24 08:25:14;;;;;;;8.73;7.47;;;;;;;3.92;59.48;96042.78;4975600;28;20354;-74
2024/01/24 08:27:39;;;;;;;9.33;7.70;;;;;;;4.00;59.28;96038.91;4977646;28;20230;-74
2024/01/24 08:30:06;;;;;;;9.67;6.90;;;;;;;3.78;59.46;96050.53;5027828;28;20187;-74
2024/01/24 08:32:31;;;;;;;9.30;6.50;;;;;;;3.86;59.53;96057.91;4990807;28;20282;-75
2024/01/24 08:34:57;;;;;;;10.93;6.80;;;;;;;3.84;59.36;96050.19;4976577;28;20298;-75
2024/01/24 08:37:22;;;;;;;10.50;7.17;;;;;;;3.97;59.26;96048.56;4977170;28;20319;-75
2024/01/24 08:39:48;;;;;;;9.97;7.00;;;;;;;4.12;58.86;96036.47;4977183;28;20227;-75
2024/01/24 08:42:13;;;;;;;8.93;7.20;;;;;;;4.07;59.16;96029.84;4981472;28;20188;-76
2024/01/24 08:44:39;;;;;;;10.67;7.10;;;;;;;3.94;59.16;96029.69;4975467;28;20204;-73
2024/01/24 08:47:04;;;;;;;8.43;6.57;;;;;;;4.04;58.63;96030.03;4978942;28;20238;-74
2024/01/24 08:49:31;;;;;;;14.43;8.07;;;;;;;3.94;58.79;96024.50;4977797;28;20227;-72
2024/01/24 08:51:57;;;;;;;8.27;7.30;;;;;;;3.95;58.51;96011.38;4977718;28;20224;-75
2024/01/24 08:54:22;;;;;;;9.37;7.50;;;;;;;4.07;58.60;96014.22;5012512;28;20188;-78
2024/01/24 08:56:48;;;;;;;8.60;7.03;;;;;;;4.09;58.90;96012.34;4994131;28;20186;-79
2024/01/24 08:59:13;;;;;;;8.90;7.00;;;;;;;4.16;58.08;96011.91;4961004;28;20224;-74
2024/01/24 09:01:39;;;;;;;8.50;6.83;;;;;;;4.15;57.88;96022.44;4983537;28;20215;-75
2024/01/24 09:04:05;;;;;;;9.00;6.70;;;;;;;4.28;57.70;96017.38;5021073;28;20263;-74
2024/01/24 09:06:30;;;;;;;8.17;6.60;;;;;;;4.24;57.60;96016.69;5001927;28;20227;-74
2024/01/24 09:08:56;;;;;;;12.83;6.97;;;;;;;4.31;57.65;96015.41;4994253;28;20184;-75
2024/01/24 09:11:22;;;;;;;11.50;8.07;;;;;;;4.43;57.69;96019.06;5000985;28;20211;-75
2024/01/24 09:13:48;;;;;;;9.30;7.17;;;;;;;4.49;57.25;96029.13;4995152;28;20255;-74
2024/01/24 09:16:14;;;;;;;11.40;7.13;;;;;;;4.29;57.43;96032.88;4996849;28;20302;-76
2024/01/24 09:18:41;;;;;;;8.97;7.23;;;;;;;4.17;58.37;96030.97;4990621;28;20230;-74
2024/01/24 09:21:06;;;;;;;10.93;8.03;;;;;;;4.26;57.81;96020.03;4971521;28;20260;-74
2024/01/24 09:23:32;;;;;;;12.07;8.40;;;;;;;4.34;57.66;96017.00;4986127;28;20299;-75
2024/01/24 09:25:57;;;;;;;11.37;8.27;;;;;;;4.22;58.05;96005.50;4987709;28;20212;-76
2024/01/24 09:28:23;;;;;;;8.97;7.10;;;;;;;4.32;57.79;96018.84;4996439;28;20323;-75
2024/01/24 09:30:49;;;;;;;9.97;7.57;;;;;;;4.24;57.78;95995.84;4986937;28;20290;-75
2024/01/24 09:33:15;;;;;;;9.37;7.50;;;;;;;4.32;57.83;96009.25;4973511;28;20185;-75
2024/01/24 09:35:40;;;;;;;9.73;7.30;;;;;;;4.31;57.15;96015.41;4998579;28;20203;-75
2024/01/24 09:38:06;;;;;;;10.23;6.47;;;;;;;4.31;57.19;95999.78;4999974;28;20254;-75
2024/01/24 09:40:32;;;;;;;8.80;7.13;;;;;;;4.22;57.26;95997.69;5029514;28;20215;-75
2024/01/24 09:43:01;;;;;;;9.57;7.50;;;;;;;4.41;57.49;95984.44;4995683;28;20254;-75
2024/01/24 09:58:52;;;;;;;11.83;7.87;;;;;;;4.72;56.46;95965.22;4994987;28;20226;-74
2024/01/24 10:01:19;;;;;;;10.57;7.80;;;;;;;4.64;56.32;95968.28;5029262;28;20219;-74
2024/01/24 10:03:46;;;;;;;9.67;7.20;;;;;;;4.60;56.69;95955.56;5016690;28;20237;-74
2024/01/24 10:06:12;;;;;;;8.67;7.73;;;;;;;4.73;56.06;95961.72;5017803;28;20190;-74
2024/01/24 10:08:38;;;;;;;10.03;7.83;;;;;;;4.47;56.79;95952.03;5017731;28;20176;-74
2024/01/24 10:11:04;;;;;;;10.53;7.43;;;;;;;4.52;56.69;95950.81;5018839;28;20226;-75
2024/01/24 10:13:31;;;;;;;7.60;6.80;;;;;;;4.67;56.28;95945.59;5024216;28;20219;-73
2024/01/24 10:15:57;;;;;;;8.27;7.33;;;;;;;4.83;55.68;95956.75;5024429;28;20349;-74
2024/01/24 10:18:24;;;;;;;12.03;8.30;;;;;;;4.90;55.88;95937.22;5018036;28;20183;-74
2024/01/24 10:20:49;;;;;;;10.47;8.17;;;;;;;4.85;55.89;95934.88;5035033;28;20179;-74
2024/01/24 10:23:15;;;;;;;10.47;8.63;;;;;;;4.95;55.71;95919.53;5016073;28;20234;-74
2024/01/24 10:25:43;;;;;;;9.73;7.63;;;;;;;5.12;55.68;95928.91;5013836;28;20341;-75
2024/01/24 10:28:13;;;;;;;10.30;7.80;;;;;;;5.21;55.21;95925.72;5021854;28;20222;-76
2024/01/24 10:30:43;;;;;;;12.50;8.57;;;;;;;5.14;55.00;95919.22;5017165;28;20223;-75
2024/01/24 10:33:12;;;;;;;10.47;7.73;;;;;;;5.27;54.79;95919.28;5051450;28;20282;-75
2024/01/24 10:35:38;;;;;;;11.43;8.30;;;;;;;5.27;54.11;95914.06;5013864;28;20185;-73
2024/01/24 10:38:05;;;;;;;23.20;8.30;;;;;;;5.32;54.45;95912.00;5020105;28;20246;-74
2024/01/24 10:40:31;;;;;;;11.53;8.40;;;;;;;5.37;54.08;95914.31;5028448;28;20281;-75
2024/01/24 10:43:08;;;;;;;10.67;8.53;;;;;;;5.31;54.64;95907.72;5021426;28;20223;-73
2024/01/24 10:45:34;;;;;;;11.53;8.37;;;;;;;5.52;54.20;95897.69;5032402;28;20237;-74
2024/01/24 10:48:00;;;;;;;12.07;8.37;;;;;;;5.55;53.91;95897.47;5021002;28;20176;-74
2024/01/24 10:50:25;;;;;;;13.13;9.63;;;;;;;5.60;54.25;95890.19;5024996;28;20309;-74
2024/01/24 10:52:51;;;;;;;9.87;8.37;;;;;;;5.52;54.08;95884.63;5017024;28;20247;-73
2024/01/24 10:55:17;;;;;;;12.00;8.90;;;;;;;5.75;52.97;95883.97;5011361;28;20215;-74
2024/01/24 10:57:44;;;;;;;9.80;7.83;;;;;;;5.44;53.43;95892.94;5017735;28;20269;-74
2024/01/24 11:00:11;;;;;;;10.00;7.63;;;;;;;5.40;53.73;95888.88;5012343;28;20214;-74
2024/01/24 11:02:43;;;;;;;11.87;8.17;;;;;;;5.37;53.73;95878.63;4999983;28;20239;-74
2024/01/24 11:05:16;;;;;;;11.00;8.13;;;;;;;5.42;53.79;95873.94;4967342;28;20221;-74
2024/01/24 11:07:54;;;;;;;10.87;7.83;;;;;;;5.49;53.64;95866.56;4999247;28;20220;-73
2024/01/24 11:10:49;;;;;;;8.77;7.87;;;;;;;5.81;53.01;95861.84;4986621;28;20220;-74
2024/01/24 11:13:18;;;;;;;10.67;7.77;;;;;;;5.75;52.55;95863.09;4928443;29;20227;-73
2024/01/24 11:15:45;;;;;;;9.93;7.40;;;;;;;5.85;52.51;95858.06;4970769;28;20220;-75
2024/01/24 11:18:24;;;;;;;10.93;8.47;;;;;;;5.99;52.10;95865.03;4954457;28;20220;-74
2024/01/24 11:20:55;;;;;;;11.17;8.10;;;;;;;6.04;52.42;95870.81;4940760;29;20304;-74
2024/01/24 11:23:45;;;;;;;9.50;7.33;;;;;;;6.15;51.87;95857.03;4970434;28;20232;-75
2024/01/24 11:26:32;;;;;;;8.77;6.93;;;;;;;6.16;50.95;95856.91;4956357;28;20225;-75
2024/01/24 11:29:10;;;;;;;9.43;6.83;;;;;;;5.89;51.96;95845.69;4970224;28;20228;-74
2024/01/24 11:31:40;;;;;;;9.60;7.30;;;;;;;6.04;52.04;95839.47;4953255;28;20239;-74
2024/01/24 11:34:12;;;;;;;12.93;7.30;;;;;;;6.25;51.73;95825.88;4937996;29;20601;-73
2024/01/24 11:36:51;;;;;;;8.50;7.10;;;;;;;6.27;51.63;95831.81;4935057;28;20221;-74
2024/01/24 11:39:28;;;;;;;9.17;7.13;;;;;;;6.18;51.56;95815.03;4970792;28;20287;-73
2024/01/24 11:41:54;;;;;;;9.27;6.50;;;;;;;6.32;51.43;95820.13;4939908;28;20193;-74
2024/01/24 11:44:20;;;;;;;8.73;6.77;;;;;;;6.43;51.47;95823.78;4956034;28;20225;-74
2024/01/24 11:46:46;;;;;;;8.23;6.67;;;;;;;6.30;51.19;95821.16;4937997;29;20251;-74
2024/01/24 11:49:11;;;;;;;9.57;7.20;;;;;;;6.24;51.66;95814.59;4952779;28;20230;-74